createdAt,value
2023-04-27T00:00:38.957Z,7.37
2023-04-27T00:03:26.505Z,7.37
2023-04-27T00:06:15.038Z,7.32
2023-04-27T00:09:01.857Z,7.22
2023-04-27T00:11:48.452Z,7.37
2023-04-27T00:14:35.142Z,7.35
2023-04-27T00:17:22.129Z,7.38
2023-04-27T00:20:11.918Z,7.26
2023-04-27T00:22:59.786Z,7.27
2023-04-27T00:25:46.454Z,7.20
2023-04-27T00:28:33.462Z,7.23
2023-04-27T00:31:20.782Z,7.16
2023-04-27T00:34:09.101Z,7.17
2023-04-27T00:36:55.770Z,7.28
2023-04-27T00:39:43.974Z,7.29
2023-04-27T00:42:30.734Z,7.29
2023-04-27T00:45:17.958Z,7.31
2023-04-27T00:48:05.065Z,7.37
2023-04-27T00:50:51.664Z,7.53
2023-04-27T00:53:38.903Z,7.32
2023-04-27T00:56:27.127Z,7.37
2023-04-27T00:59:15.193Z,7.30
2023-04-27T01:02:02.879Z,7.41
2023-04-27T01:04:52.186Z,7.37
2023-04-27T01:07:39.837Z,7.61
2023-04-27T01:10:27.080Z,7.50
2023-04-27T01:13:15.205Z,7.63
2023-04-27T01:16:01.959Z,7.71
2023-04-27T01:18:48.934Z,7.82
2023-04-27T01:21:35.882Z,7.63
2023-04-27T01:24:23.942Z,7.75
2023-04-27T01:27:11.065Z,7.75
2023-04-27T01:29:57.683Z,7.76
2023-04-27T01:32:44.452Z,7.75
2023-04-27T01:35:31.770Z,7.86
2023-04-27T01:38:20.081Z,7.72
2023-04-27T01:41:09.388Z,7.77
2023-04-27T01:43:55.873Z,7.94
2023-04-27T01:46:42.837Z,8.03
2023-04-27T01:49:29.716Z,8.16
2023-04-27T01:52:16.522Z,8.13
2023-04-27T01:55:03.302Z,8.11
2023-04-27T01:57:51.578Z,8.19
2023-04-27T02:00:38.353Z,8.18
2023-04-27T02:03:25.211Z,8.28
2023-04-27T02:06:11.818Z,8.37
2023-04-27T02:08:58.962Z,8.33
2023-04-27T02:11:45.892Z,8.33
2023-04-27T02:14:34.116Z,8.21
2023-04-27T02:17:21.503Z,8.07
2023-04-27T02:20:10.059Z,7.98
2023-04-27T02:22:56.598Z,7.93
2023-04-27T02:25:47.076Z,7.88
2023-04-27T02:28:33.798Z,7.76
2023-04-27T02:31:22.560Z,7.67
2023-04-27T02:34:09.356Z,7.60
2023-04-27T02:36:56.441Z,7.63
2023-04-27T02:39:43.089Z,7.63
2023-04-27T02:42:31.332Z,7.59
2023-04-27T02:45:18.089Z,7.72
2023-04-27T02:48:06.689Z,7.82
2023-04-27T02:50:54.184Z,7.82
2023-04-27T02:53:41.092Z,7.76
2023-04-27T02:56:27.976Z,7.63
2023-04-27T02:59:14.964Z,7.61
2023-04-27T03:02:01.916Z,7.11
2023-04-27T03:04:54.756Z,7.54
2023-04-27T03:07:41.429Z,7.45
2023-04-27T03:10:28.403Z,7.56
2023-04-27T03:13:15.848Z,7.37
2023-04-27T03:16:04.186Z,7.30
2023-04-27T03:18:50.577Z,7.45
2023-04-27T03:21:38.813Z,7.33
2023-04-27T03:24:26.748Z,7.41
2023-04-27T03:27:13.215Z,7.43
2023-04-27T03:30:00.146Z,7.40
2023-04-27T03:32:47.829Z,7.35
2023-04-27T03:35:34.503Z,7.31
2023-04-27T03:38:22.858Z,7.24
2023-04-27T03:41:09.802Z,7.41
2023-04-27T03:43:56.610Z,7.36
2023-04-27T03:46:43.450Z,7.35
2023-04-27T03:49:30.241Z,7.45
2023-04-27T03:52:16.801Z,7.41
2023-04-27T03:55:05.648Z,7.01
2023-04-27T03:57:52.843Z,7.52
2023-04-27T04:00:41.424Z,7.45
2023-04-27T04:03:28.425Z,7.60
2023-04-27T04:06:15.577Z,7.71
2023-04-27T04:09:02.214Z,7.73
2023-04-27T04:11:50.209Z,7.83
2023-04-27T04:14:36.857Z,7.71
2023-04-27T04:17:23.605Z,7.63
2023-04-27T04:20:11.216Z,7.78
2023-04-27T04:22:57.856Z,7.66
2023-04-27T04:25:48.179Z,7.77
2023-04-27T04:28:37.248Z,7.85
2023-04-27T04:31:24.228Z,7.86
2023-04-27T04:34:11.253Z,8.00
2023-04-27T04:36:58.216Z,8.01
2023-04-27T04:39:44.829Z,8.02
2023-04-27T04:42:31.520Z,8.13
2023-04-27T04:45:19.923Z,8.27
2023-04-27T04:48:07.248Z,8.28
2023-04-27T04:50:55.044Z,8.38
2023-04-27T04:53:41.893Z,8.47
2023-04-27T04:56:28.651Z,8.65
2023-04-27T04:59:16.484Z,8.71
2023-04-27T05:02:04.680Z,8.90
2023-04-27T05:04:52.342Z,9.08
2023-04-27T05:07:39.011Z,9.28
2023-04-27T05:10:25.719Z,10.07
2023-04-27T05:13:12.386Z,10.56
2023-04-27T05:15:59.329Z,11.40
2023-04-27T05:18:47.435Z,11.92
2023-04-27T05:21:34.176Z,12.01
2023-04-27T05:24:21.114Z,12.03
2023-04-27T05:27:08.025Z,12.35
2023-04-27T05:29:54.554Z,13.66
2023-04-27T05:32:41.490Z,14.92
2023-04-27T05:35:29.923Z,15.47
2023-04-27T05:38:17.602Z,16.01
2023-04-27T05:41:04.245Z,14.79
2023-04-27T05:43:51.447Z,14.10
2023-04-27T05:46:38.831Z,13.25
2023-04-27T05:49:26.025Z,13.34
2023-04-27T05:52:13.951Z,13.95
2023-04-27T05:55:00.915Z,13.52
2023-04-27T05:57:51.666Z,13.20
2023-04-27T06:00:43.990Z,12.64
2023-04-27T06:03:31.308Z,12.05
2023-04-27T06:06:17.973Z,12.13
2023-04-27T06:09:06.241Z,11.70
2023-04-27T06:11:52.938Z,12.13
2023-04-27T06:14:39.980Z,12.10
2023-04-27T06:17:26.638Z,12.03
2023-04-27T06:20:13.670Z,12.11
2023-04-27T06:23:00.514Z,11.87
2023-04-27T06:25:48.687Z,12.01
2023-04-27T06:28:35.626Z,12.14
2023-04-27T06:31:22.335Z,12.00
2023-04-27T06:34:09.292Z,12.19
2023-04-27T06:36:56.115Z,12.22
2023-04-27T06:39:42.835Z,12.10
2023-04-27T06:42:31.127Z,11.92
2023-04-27T06:45:18.078Z,11.99
2023-04-27T06:48:05.042Z,11.91
2023-04-27T06:50:52.061Z,12.03
2023-04-27T06:53:38.895Z,11.99
2023-04-27T06:56:25.366Z,11.76
2023-04-27T06:59:13.556Z,11.72
2023-04-27T07:02:00.460Z,11.36
2023-04-27T07:04:47.964Z,11.48
2023-04-27T07:07:34.635Z,11.46
2023-04-27T07:10:21.610Z,11.45
2023-04-27T07:13:09.607Z,11.52
2023-04-27T07:15:58.878Z,11.52
2023-04-27T07:18:48.200Z,11.45
2023-04-27T07:21:48.152Z,11.61
2023-04-27T07:24:37.372Z,11.67
2023-04-27T07:27:27.108Z,11.50
2023-04-27T07:30:18.375Z,11.61
2023-04-27T07:33:19.008Z,11.76
2023-04-27T07:36:10.439Z,11.86
2023-04-27T07:38:59.586Z,11.73
2023-04-27T07:41:46.765Z,11.70
2023-04-27T07:44:33.487Z,11.78
2023-04-27T07:47:20.346Z,11.68
2023-04-27T07:50:10.323Z,11.62
2023-04-27T07:52:57.926Z,11.94
2023-04-27T07:55:44.996Z,12.32
2023-04-27T07:58:31.523Z,12.11
2023-04-27T08:01:20.864Z,11.86
2023-04-27T08:04:08.449Z,11.46
2023-04-27T08:06:57.322Z,11.20
2023-04-27T08:09:44.140Z,10.93
2023-04-27T08:12:30.923Z,11.10
2023-04-27T08:15:17.703Z,11.49
2023-04-27T08:18:04.895Z,12.09
2023-04-27T08:20:51.449Z,12.64
2023-04-27T08:23:39.463Z,12.62
2023-04-27T08:26:26.476Z,12.38
2023-04-27T08:29:24.200Z,12.02
2023-04-27T08:32:14.687Z,12.21
2023-04-27T08:35:01.295Z,12.77
2023-04-27T08:37:48.159Z,13.71
2023-04-27T08:40:36.211Z,14.90
2023-04-27T08:43:23.025Z,15.40
2023-04-27T08:46:09.882Z,14.81
2023-04-27T08:48:56.766Z,13.68
2023-04-27T08:51:44.182Z,12.78
2023-04-27T08:54:30.996Z,12.81
2023-04-27T08:57:19.199Z,12.76
2023-04-27T09:00:12.786Z,13.11
2023-04-27T09:02:59.475Z,14.59
2023-04-27T09:06:02.996Z,15.02
2023-04-27T09:08:52.363Z,15.06
2023-04-27T09:11:40.413Z,14.43
2023-04-27T09:14:28.852Z,13.61
2023-04-27T09:17:15.521Z,12.89
2023-04-27T09:20:10.900Z,12.63
2023-04-27T09:22:58.657Z,12.36
2023-04-27T09:25:45.209Z,12.39
2023-04-27T09:28:32.864Z,12.35
2023-04-27T09:31:21.541Z,12.51
2023-04-27T09:34:08.091Z,12.65
2023-04-27T09:36:54.986Z,12.34
2023-04-27T09:39:42.861Z,12.47
2023-04-27T09:42:29.446Z,12.60
2023-04-27T09:45:16.364Z,12.53
2023-04-27T09:48:06.845Z,12.88
2023-04-27T09:50:54.106Z,14.56
2023-04-27T09:53:47.746Z,14.72
2023-04-27T09:56:43.579Z,14.23
2023-04-27T09:59:42.858Z,13.70
2023-04-27T10:02:49.959Z,13.40
2023-04-27T10:05:52.384Z,12.86
2023-04-27T10:08:40.391Z,12.99
2023-04-27T10:11:39.130Z,12.74
2023-04-27T10:14:26.486Z,12.78
2023-04-27T10:17:13.473Z,12.72
2023-04-27T10:20:01.853Z,13.09
2023-04-27T10:22:52.543Z,13.72
2023-04-27T10:25:41.374Z,14.02
2023-04-27T10:28:28.198Z,15.37
2023-04-27T10:31:16.096Z,15.27
2023-04-27T10:34:09.886Z,15.15
2023-04-27T10:37:06.398Z,14.52
2023-04-27T10:39:55.002Z,13.88
2023-04-27T10:42:41.773Z,13.81
2023-04-27T10:45:31.517Z,14.15
2023-04-27T10:48:18.621Z,14.33
2023-04-27T10:51:06.571Z,13.89
2023-04-27T10:53:54.068Z,13.71
2023-04-27T10:56:42.266Z,13.37
2023-04-27T10:59:29.196Z,13.42
2023-04-27T11:02:15.852Z,13.22
2023-04-27T11:05:07.521Z,12.94
2023-04-27T11:07:54.418Z,12.97
2023-04-27T11:10:43.900Z,13.11
2023-04-27T11:13:33.528Z,13.17
2023-04-27T11:16:20.554Z,13.31
2023-04-27T11:19:07.379Z,13.58
2023-04-27T11:21:54.055Z,13.59
2023-04-27T11:24:48.956Z,13.60
2023-04-27T11:27:39.699Z,13.75
2023-04-27T11:30:27.978Z,13.81
2023-04-27T11:33:14.432Z,13.72
2023-04-27T11:36:01.858Z,13.52
2023-04-27T11:38:48.594Z,14.42
2023-04-27T11:41:36.434Z,14.28
2023-04-27T11:44:27.478Z,14.28
2023-04-27T11:47:19.463Z,13.95
2023-04-27T11:50:08.043Z,13.60
2023-04-27T11:52:56.043Z,13.61
2023-04-27T11:55:43.336Z,13.65
2023-04-27T11:58:30.734Z,13.46
2023-04-27T12:01:27.552Z,13.68
2023-04-27T12:04:22.958Z,13.76
2023-04-27T12:07:09.455Z,13.93
2023-04-27T12:09:56.229Z,13.93
2023-04-27T12:12:43.712Z,13.72
2023-04-27T12:15:30.316Z,13.94
2023-04-27T12:18:17.050Z,14.11
2023-04-27T12:23:55.069Z,14.34
2023-04-27T12:26:41.991Z,14.23
2023-04-27T12:29:28.668Z,14.39
2023-04-27T12:32:15.366Z,14.43
2023-04-27T12:35:02.210Z,14.28
2023-04-27T12:37:50.229Z,14.48
2023-04-27T12:40:36.849Z,14.43
2023-04-27T12:43:23.653Z,14.45
2023-04-27T12:46:10.518Z,14.82
2023-04-27T12:48:57.573Z,14.79
2023-04-27T12:51:44.310Z,15.09
2023-04-27T12:54:32.330Z,14.80
2023-04-27T12:57:19.452Z,14.93
2023-04-27T13:00:10.282Z,15.02
2023-04-27T13:02:57.421Z,14.84
2023-04-27T13:05:44.511Z,14.79
2023-04-27T13:08:31.072Z,14.90
2023-04-27T13:11:19.837Z,14.94
2023-04-27T13:14:06.401Z,14.67
2023-04-27T13:16:53.224Z,14.41
2023-04-27T13:19:40.029Z,14.34
2023-04-27T13:22:26.824Z,14.56
2023-04-27T13:25:14.116Z,14.20
2023-04-27T13:28:02.011Z,14.23
2023-04-27T13:30:49.122Z,13.97
2023-04-27T13:33:44.625Z,13.78
2023-04-27T13:36:31.314Z,13.64
2023-04-27T13:39:18.103Z,13.64
2023-04-27T13:42:04.715Z,14.03
2023-04-27T13:44:52.873Z,14.04
2023-04-27T13:47:40.771Z,14.13
2023-04-27T13:50:27.523Z,14.32
2023-04-27T13:53:16.221Z,14.24
2023-04-27T13:56:02.775Z,14.10
2023-04-27T13:58:49.661Z,13.92
2023-04-27T14:01:38.103Z,13.80
2023-04-27T14:04:24.996Z,13.80
2023-04-27T14:07:11.767Z,13.76
2023-04-27T14:09:58.582Z,13.69
2023-04-27T14:12:46.091Z,13.89
2023-04-27T14:15:36.927Z,13.75
2023-04-27T14:18:31.924Z,13.92
2023-04-27T14:21:19.286Z,13.85
2023-04-27T14:24:06.613Z,14.10
2023-04-27T14:26:53.645Z,14.20
2023-04-27T14:29:40.245Z,14.13
2023-04-27T14:32:27.718Z,14.18
2023-04-27T14:35:15.836Z,13.77
2023-04-27T14:38:02.922Z,13.82
2023-04-27T14:40:49.591Z,13.95
2023-04-27T14:43:36.534Z,13.94
2023-04-27T14:46:23.167Z,13.76
2023-04-27T14:49:09.988Z,13.90
2023-04-27T14:51:58.781Z,13.59
2023-04-27T14:54:45.172Z,13.64
2023-04-27T14:57:32.114Z,13.77
2023-04-27T15:00:19.548Z,13.83
2023-04-27T15:03:06.276Z,13.95
2023-04-27T15:05:52.830Z,14.06
2023-04-27T15:08:41.018Z,13.75
2023-04-27T15:11:27.638Z,13.84
2023-04-27T15:14:14.174Z,13.99
2023-04-27T15:17:01.330Z,13.97
2023-04-27T15:19:48.097Z,14.11
2023-04-27T15:22:34.823Z,14.05
2023-04-27T15:25:23.095Z,14.02
2023-04-27T15:28:09.956Z,14.06
2023-04-27T15:30:56.811Z,14.13
2023-04-27T15:33:43.257Z,14.22
2023-04-27T15:36:29.966Z,14.06
2023-04-27T15:39:16.765Z,14.14
2023-04-27T15:42:06.540Z,14.35
2023-04-27T15:44:52.956Z,14.25
2023-04-27T15:47:39.660Z,14.15
2023-04-27T15:50:26.700Z,14.10
2023-04-27T15:53:13.591Z,14.19
2023-04-27T15:56:00.344Z,14.34
2023-04-27T15:58:48.412Z,14.22
2023-04-27T16:01:35.384Z,14.39
2023-04-27T16:04:22.286Z,14.24
2023-04-27T16:07:09.243Z,14.15
2023-04-27T16:09:55.760Z,14.02
2023-04-27T16:12:42.615Z,13.86
2023-04-27T16:15:30.657Z,14.01
2023-04-27T16:18:17.479Z,13.99
2023-04-27T16:21:04.435Z,13.86
2023-04-27T16:23:51.821Z,14.07
2023-04-27T16:26:38.198Z,14.31
2023-04-27T16:29:24.940Z,14.30
2023-04-27T16:32:13.077Z,14.01
2023-04-27T16:34:59.763Z,14.24
2023-04-27T16:37:46.599Z,14.28
2023-04-27T16:40:33.475Z,14.25
2023-04-27T16:43:20.278Z,14.16
2023-04-27T16:46:08.882Z,14.03
2023-04-27T16:48:57.045Z,13.84
2023-04-27T16:51:43.530Z,13.83
2023-04-27T16:54:30.180Z,13.68
2023-04-27T16:57:16.980Z,13.49
2023-04-27T17:00:05.078Z,13.34
2023-04-27T17:02:51.839Z,13.46
2023-04-27T17:05:39.962Z,13.29
2023-04-27T17:08:26.916Z,13.12
2023-04-27T17:11:14.573Z,13.00
2023-04-27T17:14:01.269Z,12.94
2023-04-27T17:16:47.971Z,12.85
2023-04-27T17:19:34.835Z,12.81
2023-04-27T17:22:23.034Z,12.72
2023-04-27T17:25:10.321Z,12.61
2023-04-27T17:27:58.036Z,12.52
2023-04-27T17:30:46.079Z,12.61
2023-04-27T17:33:32.757Z,12.59
2023-04-27T17:36:19.493Z,12.36
2023-04-27T17:39:07.462Z,12.32
2023-04-27T17:41:54.475Z,12.13
2023-04-27T17:44:42.377Z,11.98
2023-04-27T17:47:29.357Z,11.92
2023-04-27T17:50:16.100Z,11.69
2023-04-27T17:53:02.998Z,11.44
2023-04-27T17:55:52.749Z,11.26
2023-04-27T17:58:39.343Z,11.08
2023-04-27T18:01:26.162Z,10.96
2023-04-27T18:04:13.024Z,10.90
2023-04-27T18:06:59.629Z,10.97
2023-04-27T18:09:46.662Z,10.64
2023-04-27T18:12:34.987Z,10.48
2023-04-27T18:15:21.629Z,10.45
2023-04-27T18:18:08.561Z,10.20
2023-04-27T18:20:55.378Z,10.20
2023-04-27T18:23:42.788Z,10.24
2023-04-27T18:26:30.695Z,9.97
2023-04-27T18:29:18.724Z,9.75
2023-04-27T18:32:06.478Z,9.59
2023-04-27T18:34:52.896Z,9.56
2023-04-27T18:37:39.712Z,9.39
2023-04-27T18:40:26.921Z,9.18
2023-04-27T18:43:13.917Z,9.07
2023-04-27T18:46:01.947Z,9.59
2023-04-27T18:48:48.668Z,9.15
2023-04-27T18:51:35.692Z,8.88
2023-04-27T18:54:22.154Z,8.72
2023-04-27T18:57:09.052Z,8.60
2023-04-27T18:59:56.135Z,8.52
2023-04-27T19:02:44.272Z,8.65
2023-04-27T19:05:30.840Z,8.34
2023-04-27T19:08:17.609Z,8.31
2023-04-27T19:11:04.492Z,8.43
2023-04-27T19:13:51.364Z,8.32
2023-04-27T19:16:38.243Z,8.17
2023-04-27T19:19:26.742Z,8.01
2023-04-27T19:22:13.711Z,8.07
2023-04-27T19:25:00.721Z,7.87
2023-04-27T19:27:47.272Z,8.01
2023-04-27T19:30:33.889Z,7.63
2023-04-27T19:33:20.833Z,7.72
2023-04-27T19:36:09.120Z,7.41
2023-04-27T19:38:55.952Z,7.52
2023-04-27T19:41:43.106Z,7.56
2023-04-27T19:44:29.983Z,7.38
2023-04-27T19:47:16.896Z,7.51
2023-04-27T19:50:04.899Z,7.09
2023-04-27T19:52:53.805Z,7.15
2023-04-27T19:55:44.021Z,6.89
2023-04-27T19:58:35.466Z,6.72
2023-04-27T20:01:25.783Z,6.65
2023-04-27T20:04:14.291Z,6.62
2023-04-27T20:07:03.325Z,6.50
2023-04-27T20:09:53.270Z,6.46
2023-04-27T20:12:52.111Z,6.39
2023-04-27T20:15:43.371Z,6.64
2023-04-27T20:18:32.036Z,6.53
2023-04-27T20:21:19.316Z,6.30
2023-04-27T20:24:06.519Z,6.17
2023-04-27T20:26:54.293Z,6.10
2023-04-27T20:29:43.154Z,6.14
2023-04-27T20:32:29.850Z,5.95
2023-04-27T20:35:16.499Z,5.88
2023-04-27T20:38:03.564Z,5.91
2023-04-27T20:40:53.988Z,5.85
2023-04-27T20:43:45.534Z,5.72
2023-04-27T20:46:32.140Z,5.91
2023-04-27T20:49:24.664Z,5.84
2023-04-27T20:52:18.483Z,5.66
2023-04-27T20:55:06.347Z,5.52
2023-04-27T20:57:53.168Z,5.58
2023-04-27T21:00:41.763Z,5.58
2023-04-27T21:03:28.523Z,5.52
2023-04-27T21:06:15.430Z,5.41
2023-04-27T21:09:02.079Z,5.33
2023-04-27T21:11:51.541Z,5.21
2023-04-27T21:14:38.041Z,5.43
2023-04-27T21:17:27.327Z,5.36
2023-04-27T21:20:14.678Z,5.17
2023-04-27T21:23:02.412Z,5.08
2023-04-27T21:25:49.006Z,5.22
2023-04-27T21:28:36.226Z,5.49
2023-04-27T21:31:22.903Z,5.36
2023-04-27T21:34:11.027Z,4.97
2023-04-27T21:36:58.492Z,4.75
2023-04-27T21:39:45.012Z,4.74
2023-04-27T21:42:32.109Z,4.70
2023-04-27T21:45:19.021Z,4.82
2023-04-27T21:48:06.286Z,4.87
2023-04-27T21:50:54.070Z,4.81
2023-04-27T21:53:40.827Z,4.73
2023-04-27T21:56:27.625Z,4.61
2023-04-27T21:59:14.535Z,4.59
2023-04-27T22:02:06.577Z,4.56
2023-04-27T22:04:53.590Z,4.53
2023-04-27T22:07:41.615Z,4.44
2023-04-27T22:10:28.264Z,4.51
2023-04-27T22:13:18.824Z,4.69
2023-04-27T22:16:06.611Z,4.40
2023-04-27T22:18:53.973Z,4.48
2023-04-27T22:21:40.725Z,4.55
2023-04-27T22:24:28.765Z,4.32
2023-04-27T22:27:15.505Z,4.30
2023-04-27T22:30:02.216Z,4.12
2023-04-27T22:32:48.982Z,4.21
2023-04-27T22:35:37.116Z,4.43
2023-04-27T22:38:24.123Z,4.23
2023-04-27T22:41:12.472Z,4.03
2023-04-27T22:43:59.145Z,4.12
2023-04-27T22:46:46.240Z,4.15
2023-04-27T22:49:34.361Z,4.17
2023-04-27T22:52:21.202Z,4.12
2023-04-27T22:55:08.318Z,3.98
2023-04-27T22:57:56.452Z,3.91
2023-04-27T23:00:43.273Z,3.91
2023-04-27T23:03:30.214Z,3.90
2023-04-27T23:06:17.089Z,3.88
2023-04-27T23:09:33.739Z,3.87
2023-04-27T23:12:42.383Z,3.71
2023-04-27T23:15:36.916Z,3.66
2023-04-27T23:18:42.859Z,3.58
2023-04-27T23:21:42.261Z,3.62
2023-04-27T23:24:29.365Z,3.69
2023-04-27T23:27:34.110Z,3.70
2023-04-27T23:30:23.066Z,3.69
2023-04-27T23:33:11.206Z,3.75
2023-04-27T23:36:07.229Z,3.81
2023-04-27T23:39:09.962Z,3.80
2023-04-27T23:42:06.166Z,3.47
2023-04-27T23:45:13.219Z,3.41
2023-04-27T23:48:06.950Z,3.39
2023-04-27T23:51:01.605Z,3.31
2023-04-27T23:53:47.918Z,3.49
2023-04-27T23:56:34.695Z,3.32
2023-04-27T23:59:21.394Z,3.21
